createdAt,value
2018-11-12T00:00:17.268Z,6.30
2018-11-12T00:01:16.277Z,6.24
2018-11-12T00:02:16.600Z,6.27
2018-11-12T00:03:16.902Z,6.29
2018-11-12T00:04:17.215Z,6.26
2018-11-12T00:05:16.494Z,6.30
2018-11-12T00:06:16.853Z,6.27
2018-11-12T00:07:17.158Z,6.27
2018-11-12T00:08:16.439Z,6.33
2018-11-12T00:09:16.755Z,6.30
2018-11-12T00:10:17.065Z,6.23
2018-11-12T00:11:17.155Z,6.31
2018-11-12T00:12:16.447Z,6.26
2018-11-12T00:13:16.755Z,6.24
2018-11-12T00:14:17.062Z,6.27
2018-11-12T00:15:16.351Z,6.31
2018-11-12T00:16:16.649Z,6.43
2018-11-12T00:17:17.007Z,6.40
2018-11-12T00:18:16.322Z,6.40
2018-11-12T00:19:16.666Z,6.48
2018-11-12T00:20:17.034Z,6.45
2018-11-12T00:21:17.093Z,6.45
2018-11-12T00:22:16.396Z,6.51
2018-11-12T00:23:16.721Z,6.48
2018-11-12T00:24:17.020Z,6.48
2018-11-12T00:25:16.319Z,6.52
2018-11-12T00:26:16.616Z,6.54
2018-11-12T00:27:16.910Z,6.52
2018-11-12T00:28:16.239Z,6.65
2018-11-12T00:29:16.538Z,6.57
2018-11-12T00:30:16.863Z,6.69
2018-11-12T00:31:16.916Z,6.72
2018-11-12T00:32:16.232Z,6.74
2018-11-12T00:33:16.520Z,6.64
2018-11-12T00:34:16.862Z,6.64
2018-11-12T00:35:17.193Z,6.64
2018-11-12T00:36:16.519Z,6.59
2018-11-12T00:37:16.835Z,6.67
2018-11-12T00:38:17.164Z,6.69
2018-11-12T00:39:16.474Z,6.88
2018-11-12T00:40:16.813Z,6.84
2018-11-12T00:41:16.828Z,6.84
2018-11-12T00:42:17.138Z,6.88
2018-11-12T00:43:16.440Z,6.92
2018-11-12T00:44:16.749Z,6.78
2018-11-12T00:45:17.079Z,6.74
2018-11-12T00:46:16.391Z,6.74
2018-11-12T00:47:16.725Z,6.76
2018-11-12T00:48:17.004Z,6.69
2018-11-12T00:49:16.294Z,6.65
2018-11-12T00:50:16.622Z,6.63
2018-11-12T00:51:16.682Z,6.61
2018-11-12T00:52:16.993Z,6.61
2018-11-12T00:53:16.614Z,6.61
2018-11-12T00:54:16.885Z,6.57
2018-11-12T00:55:17.218Z,6.49
2018-11-12T00:56:16.532Z,6.44
2018-11-12T00:57:16.840Z,6.41
2018-11-12T00:58:17.153Z,6.27
2018-11-12T00:59:16.476Z,6.10
2018-11-12T01:00:16.824Z,6.00
2018-11-12T01:01:16.863Z,5.81
2018-11-12T01:02:17.168Z,5.68
2018-11-12T01:03:16.515Z,5.55
2018-11-12T01:04:16.994Z,5.50
2018-11-12T01:05:16.422Z,5.50
2018-11-12T01:06:16.718Z,5.52
2018-11-12T01:07:17.045Z,5.48
2018-11-12T01:08:16.381Z,5.52
2018-11-12T01:09:16.714Z,5.55
2018-11-12T01:10:17.020Z,5.71
2018-11-12T01:11:17.076Z,5.72
2018-11-12T01:12:16.402Z,5.79
2018-11-12T01:13:16.695Z,5.89
2018-11-12T01:14:17.024Z,5.84
2018-11-12T01:15:16.335Z,5.84
2018-11-12T01:16:16.700Z,5.86
2018-11-12T01:17:16.279Z,5.82
2018-11-12T01:18:16.625Z,5.70
2018-11-12T01:19:16.956Z,5.60
2018-11-12T01:20:16.289Z,5.51
2018-11-12T01:21:16.326Z,5.50
2018-11-12T01:22:16.632Z,5.48
2018-11-12T01:23:16.953Z,5.31
2018-11-12T01:24:16.258Z,5.20
2018-11-12T01:25:16.575Z,5.26
2018-11-12T01:26:16.886Z,5.35
2018-11-12T01:27:17.481Z,5.38
2018-11-12T01:28:16.814Z,5.40
2018-11-12T01:29:17.161Z,5.43
2018-11-12T01:30:16.496Z,5.40
2018-11-12T01:31:16.556Z,5.37
2018-11-12T01:32:16.858Z,5.35
2018-11-12T01:33:17.177Z,5.38
2018-11-12T01:34:16.463Z,5.38
2018-11-12T01:35:16.795Z,5.35
2018-11-12T01:36:17.112Z,5.37
2018-11-12T01:37:16.390Z,5.44
2018-11-12T01:38:16.733Z,5.44
2018-11-12T01:39:17.059Z,5.44
2018-11-12T01:40:16.388Z,5.45
2018-11-12T01:41:16.420Z,5.50
2018-11-12T01:42:16.743Z,5.52
2018-11-12T01:43:17.068Z,5.54
2018-11-12T01:44:16.368Z,5.52
2018-11-12T01:45:16.733Z,5.52
2018-11-12T01:46:17.041Z,5.64
2018-11-12T01:47:16.349Z,5.74
2018-11-12T01:48:16.644Z,5.85
2018-11-12T01:49:16.932Z,5.85
2018-11-12T01:50:16.260Z,5.85
2018-11-12T01:51:16.289Z,5.85
2018-11-12T01:52:16.608Z,5.79
2018-11-12T01:53:16.917Z,5.72
2018-11-12T01:54:17.226Z,5.68
2018-11-12T01:55:16.549Z,5.77
2018-11-12T01:56:16.819Z,5.78
2018-11-12T01:57:17.684Z,6.06
2018-11-12T01:58:16.987Z,6.05
2018-11-12T01:59:16.304Z,6.06
2018-11-12T02:00:16.622Z,6.00
2018-11-12T02:01:16.714Z,5.52
2018-11-12T02:02:17.027Z,5.41
2018-11-12T02:03:16.470Z,5.41
2018-11-12T02:04:16.793Z,5.40
2018-11-12T02:05:17.092Z,5.47
2018-11-12T02:06:16.385Z,5.47
2018-11-12T02:07:16.690Z,5.45
2018-11-12T02:08:16.986Z,5.48
2018-11-12T02:09:16.295Z,5.47
2018-11-12T02:10:16.611Z,5.44
2018-11-12T02:11:16.657Z,5.45
2018-11-12T02:12:16.964Z,5.47
2018-11-12T02:13:16.325Z,5.47
2018-11-12T02:14:16.632Z,5.51
2018-11-12T02:15:16.927Z,5.50
2018-11-12T02:16:16.259Z,5.47
2018-11-12T02:17:16.612Z,5.51
2018-11-12T02:18:16.953Z,5.50
2018-11-12T02:19:16.272Z,5.48
2018-11-12T02:20:16.612Z,5.48
2018-11-12T02:21:16.640Z,5.58
2018-11-12T02:22:16.956Z,5.77
2018-11-12T02:23:16.253Z,5.67
2018-11-12T02:24:16.561Z,5.79
2018-11-12T02:25:16.899Z,5.86
2018-11-12T02:26:17.197Z,5.78
2018-11-12T02:27:16.486Z,5.79
2018-11-12T02:28:16.769Z,5.85
2018-11-12T02:29:17.029Z,5.65
2018-11-12T02:30:16.636Z,5.61
2018-11-12T02:31:16.674Z,5.52
2018-11-12T02:32:16.993Z,5.50
2018-11-12T02:33:16.390Z,5.37
2018-11-12T02:34:16.855Z,5.34
2018-11-12T02:35:17.164Z,5.26
2018-11-12T02:36:16.496Z,5.16
2018-11-12T02:37:16.785Z,5.02
2018-11-12T02:38:17.104Z,5.03
2018-11-12T02:39:16.417Z,5.06
2018-11-12T02:40:16.710Z,5.10
2018-11-12T02:41:16.763Z,5.12
2018-11-12T02:42:17.096Z,5.16
2018-11-12T02:43:16.393Z,5.14
2018-11-12T02:44:16.679Z,5.13
2018-11-12T02:45:17.011Z,5.06
2018-11-12T02:46:16.323Z,5.05
2018-11-12T02:47:16.634Z,5.00
2018-11-12T02:48:16.918Z,4.93
2018-11-12T02:49:16.260Z,4.89
2018-11-12T02:50:16.644Z,4.91
2018-11-12T02:51:16.679Z,4.93
2018-11-12T02:52:17.020Z,4.92
2018-11-12T02:53:16.345Z,4.92
2018-11-12T02:54:16.687Z,5.09
2018-11-12T02:55:16.967Z,5.12
2018-11-12T02:56:16.328Z,5.09
2018-11-12T02:57:16.718Z,4.96
2018-11-12T02:58:17.111Z,4.91
2018-11-12T02:59:16.400Z,4.96
2018-11-12T03:00:16.758Z,4.93
2018-11-12T03:01:16.847Z,4.93
2018-11-12T03:02:17.185Z,5.06
2018-11-12T03:03:16.509Z,5.12
2018-11-12T03:04:16.824Z,5.10
2018-11-12T03:05:17.149Z,5.00
2018-11-12T03:06:16.470Z,5.07
2018-11-12T03:07:16.795Z,5.05
2018-11-12T03:08:17.110Z,5.09
2018-11-12T03:09:16.448Z,5.13
2018-11-12T03:10:16.786Z,5.13
2018-11-12T03:11:16.840Z,5.13
2018-11-12T03:12:17.187Z,5.14
2018-11-12T03:13:16.535Z,5.13
2018-11-12T03:14:16.849Z,5.19
2018-11-12T03:15:17.171Z,5.40
2018-11-12T03:16:16.483Z,5.35
2018-11-12T03:17:16.787Z,5.38
2018-11-12T03:18:17.089Z,5.40
2018-11-12T03:19:16.395Z,5.24
2018-11-12T03:20:16.739Z,5.30
2018-11-12T03:21:16.779Z,5.28
2018-11-12T03:22:17.082Z,5.22
2018-11-12T03:23:16.386Z,5.37
2018-11-12T03:24:16.713Z,5.43
2018-11-12T03:25:17.059Z,5.47
2018-11-12T03:26:16.376Z,5.47
2018-11-12T03:27:16.668Z,5.40
2018-11-12T03:28:16.975Z,5.30
2018-11-12T03:29:16.303Z,5.24
2018-11-12T03:30:16.681Z,5.20
2018-11-12T03:31:16.669Z,5.14
2018-11-12T03:32:16.986Z,5.13
2018-11-12T03:33:16.310Z,5.02
2018-11-12T03:34:16.620Z,4.99
2018-11-12T03:35:16.958Z,4.91
2018-11-12T03:36:16.274Z,4.78
2018-11-12T03:37:16.607Z,4.72
2018-11-12T03:38:16.904Z,4.68
2018-11-12T03:39:17.218Z,4.68
2018-11-12T03:40:16.521Z,4.69
2018-11-12T03:41:16.600Z,4.75
2018-11-12T03:42:16.910Z,4.84
2018-11-12T03:43:16.227Z,4.85
2018-11-12T03:44:16.525Z,4.86
2018-11-12T03:45:16.840Z,4.91
2018-11-12T03:46:17.531Z,4.92
2018-11-12T03:47:16.849Z,4.95
2018-11-12T03:48:17.163Z,5.02
2018-11-12T03:49:16.479Z,5.06
2018-11-12T03:50:16.789Z,5.10
2018-11-12T03:51:16.835Z,5.10
2018-11-12T03:52:17.114Z,5.10
2018-11-12T03:53:16.385Z,5.10
2018-11-12T03:54:16.541Z,5.10
2018-11-12T03:55:16.873Z,5.17
2018-11-12T03:56:17.192Z,5.22
2018-11-12T03:57:16.509Z,5.22
2018-11-12T03:58:16.837Z,5.12
2018-11-12T03:59:17.121Z,5.14
2018-11-12T04:00:16.524Z,5.12
2018-11-12T04:01:16.513Z,5.10
2018-11-12T04:02:16.810Z,5.12
2018-11-12T04:03:17.155Z,5.12
2018-11-12T04:04:16.458Z,5.13
2018-11-12T04:05:16.739Z,5.14
2018-11-12T04:06:17.070Z,5.12
2018-11-12T04:07:16.385Z,5.12
2018-11-12T04:08:16.708Z,5.12
2018-11-12T04:09:17.017Z,5.12
2018-11-12T04:10:16.324Z,5.14
2018-11-12T04:11:16.382Z,5.31
2018-11-12T04:12:16.710Z,5.27
2018-11-12T04:13:16.985Z,5.30
2018-11-12T04:14:16.321Z,5.28
2018-11-12T04:15:16.628Z,5.30
2018-11-12T04:16:16.956Z,5.30
2018-11-12T04:17:16.253Z,5.28
2018-11-12T04:18:16.564Z,5.26
2018-11-12T04:19:16.890Z,5.23
2018-11-12T04:20:17.178Z,5.23
2018-11-12T04:21:16.254Z,5.22
2018-11-12T04:22:16.565Z,5.20
2018-11-12T04:23:16.889Z,5.02
2018-11-12T04:24:17.189Z,4.99
2018-11-12T04:25:16.531Z,4.92
2018-11-12T04:26:16.826Z,4.93
2018-11-12T04:27:17.109Z,4.96
2018-11-12T04:28:16.445Z,4.96
2018-11-12T04:29:16.790Z,4.99
2018-11-12T04:30:17.138Z,4.98
2018-11-12T04:31:17.182Z,5.00
2018-11-12T04:32:16.489Z,5.03
2018-11-12T04:33:16.803Z,4.98
2018-11-12T04:34:17.133Z,4.91
2018-11-12T04:35:16.455Z,4.85
2018-11-12T04:36:16.804Z,4.84
2018-11-12T04:37:17.094Z,4.85
2018-11-12T04:38:16.401Z,4.84
2018-11-12T04:39:16.738Z,4.88
2018-11-12T04:40:17.040Z,4.86
2018-11-12T04:41:17.108Z,4.89
2018-11-12T04:42:16.409Z,5.09
2018-11-12T04:43:16.730Z,5.10
2018-11-12T04:44:17.051Z,5.10
2018-11-12T04:45:16.373Z,5.10
2018-11-12T04:46:16.695Z,5.10
2018-11-12T04:47:16.999Z,5.13
2018-11-12T04:48:16.306Z,5.16
2018-11-12T04:49:16.606Z,5.19
2018-11-12T04:50:17.139Z,5.19
2018-11-12T04:51:16.970Z,5.23
2018-11-12T04:52:16.315Z,5.30
2018-11-12T04:53:16.637Z,5.37
2018-11-12T04:54:16.925Z,5.30
2018-11-12T04:55:16.341Z,5.27
2018-11-12T04:56:16.876Z,5.27
2018-11-12T04:57:17.164Z,5.28
2018-11-12T04:58:16.491Z,5.27
2018-11-12T04:59:16.829Z,5.24
2018-11-12T05:00:17.207Z,5.19
2018-11-12T05:01:17.218Z,5.17
2018-11-12T05:02:16.523Z,5.22
2018-11-12T05:03:16.821Z,5.23
2018-11-12T05:04:17.123Z,5.28
2018-11-12T05:05:16.446Z,5.28
2018-11-12T05:06:16.815Z,5.27
2018-11-12T05:07:17.184Z,5.26
2018-11-12T05:08:16.589Z,5.28
2018-11-12T05:09:16.910Z,5.26
2018-11-12T05:10:16.236Z,5.30
2018-11-12T05:11:16.316Z,5.26
2018-11-12T05:12:16.614Z,5.26
2018-11-12T05:13:16.911Z,5.28
2018-11-12T05:14:17.231Z,5.33
2018-11-12T05:15:16.542Z,5.43
2018-11-12T05:16:16.844Z,5.44
2018-11-12T05:17:17.176Z,5.34
2018-11-12T05:18:16.504Z,5.27
2018-11-12T05:19:16.789Z,5.27
2018-11-12T05:20:17.428Z,5.24
2018-11-12T05:21:17.171Z,5.24
2018-11-12T05:22:16.462Z,5.23
2018-11-12T05:23:16.756Z,5.23
2018-11-12T05:24:17.083Z,5.19
2018-11-12T05:25:16.419Z,5.22
2018-11-12T05:26:16.998Z,5.26
2018-11-12T05:27:16.337Z,5.26
2018-11-12T05:28:16.635Z,5.31
2018-11-12T05:29:16.973Z,5.30
2018-11-12T05:30:16.324Z,5.28
2018-11-12T05:31:16.384Z,5.26
2018-11-12T05:32:16.670Z,5.31
2018-11-12T05:33:16.996Z,5.34
2018-11-12T05:34:16.299Z,5.34
2018-11-12T05:35:16.613Z,5.35
2018-11-12T05:36:16.933Z,5.33
2018-11-12T05:37:16.220Z,5.31
2018-11-12T05:38:16.616Z,5.30
2018-11-12T05:39:16.986Z,5.27
2018-11-12T05:40:16.318Z,5.26
2018-11-12T05:41:16.506Z,5.26
2018-11-12T05:42:16.811Z,5.26
2018-11-12T05:43:17.128Z,5.26
2018-11-12T05:44:16.434Z,5.33
2018-11-12T05:45:16.757Z,5.31
2018-11-12T05:46:17.095Z,5.27
2018-11-12T05:47:16.393Z,5.27
2018-11-12T05:48:16.687Z,5.26
2018-11-12T05:49:16.972Z,5.26
2018-11-12T05:50:16.248Z,5.17
2018-11-12T05:51:16.346Z,5.02
2018-11-12T05:52:16.703Z,4.96
2018-11-12T05:53:17.022Z,5.00
2018-11-12T05:54:16.325Z,4.96
2018-11-12T05:55:16.619Z,4.96
2018-11-12T05:56:16.926Z,4.93
2018-11-12T05:57:16.275Z,4.91
2018-11-12T05:58:16.578Z,4.76
2018-11-12T05:59:16.877Z,4.76
2018-11-12T06:00:17.536Z,4.92
2018-11-12T06:01:16.291Z,4.95
2018-11-12T06:02:16.567Z,4.85
2018-11-12T06:03:16.859Z,4.84
2018-11-12T06:04:17.173Z,4.86
2018-11-12T06:05:16.497Z,4.85
2018-11-12T06:06:16.803Z,4.84
2018-11-12T06:07:17.114Z,4.74
2018-11-12T06:08:16.406Z,4.51
2018-11-12T06:09:16.693Z,4.51
2018-11-12T06:10:17.009Z,4.48
2018-11-12T06:11:17.060Z,4.47
2018-11-12T06:12:16.358Z,4.44
2018-11-12T06:13:16.723Z,4.44
2018-11-12T06:14:17.024Z,4.44
2018-11-12T06:15:16.320Z,4.46
2018-11-12T06:16:16.688Z,4.48
2018-11-12T06:17:16.980Z,4.47
2018-11-12T06:18:16.312Z,4.63
2018-11-12T06:19:16.610Z,4.72
2018-11-12T06:20:16.944Z,4.74
2018-11-12T06:21:17.009Z,4.79
2018-11-12T06:22:16.508Z,4.79
2018-11-12T06:23:16.830Z,4.78
2018-11-12T06:24:17.123Z,4.74
2018-11-12T06:25:16.439Z,4.72
2018-11-12T06:26:16.747Z,4.72
2018-11-12T06:27:17.059Z,4.67
2018-11-12T06:28:16.370Z,4.76
2018-11-12T06:29:16.704Z,4.81
2018-11-12T06:30:17.043Z,4.84
2018-11-12T06:31:17.146Z,4.86
2018-11-12T06:32:16.635Z,4.86
2018-11-12T06:33:16.960Z,4.81
2018-11-12T06:34:16.249Z,4.85
2018-11-12T06:35:16.644Z,4.88
2018-11-12T06:36:16.991Z,4.76
2018-11-12T06:37:16.321Z,4.72
2018-11-12T06:38:16.644Z,4.75
2018-11-12T06:39:16.949Z,4.79
2018-11-12T06:40:16.305Z,4.81
2018-11-12T06:41:16.355Z,4.75
2018-11-12T06:42:16.677Z,4.71
2018-11-12T06:43:17.004Z,4.67
2018-11-12T06:44:16.606Z,4.51
2018-11-12T06:45:16.929Z,4.50
2018-11-12T06:46:16.234Z,4.51
2018-11-12T06:47:16.543Z,4.58
2018-11-12T06:48:16.848Z,4.71
2018-11-12T06:49:17.162Z,4.78
2018-11-12T06:50:16.490Z,4.79
2018-11-12T06:51:16.521Z,4.89
2018-11-12T06:52:16.827Z,5.00
2018-11-12T06:53:17.179Z,5.12
2018-11-12T06:54:16.566Z,5.12
2018-11-12T06:55:16.866Z,5.13
2018-11-12T06:56:17.156Z,5.10
2018-11-12T06:57:16.483Z,5.09
2018-11-12T06:58:16.802Z,5.00
2018-11-12T06:59:17.101Z,4.96
2018-11-12T07:00:16.453Z,4.98
2018-11-12T07:01:16.503Z,5.00
2018-11-12T07:02:16.784Z,5.00
2018-11-12T07:03:17.066Z,5.00
2018-11-12T07:04:16.405Z,5.03
2018-11-12T07:05:16.673Z,5.12
2018-11-12T07:06:17.090Z,5.12
2018-11-12T07:07:16.411Z,5.09
2018-11-12T07:08:16.680Z,5.07
2018-11-12T07:09:17.001Z,5.07
2018-11-12T07:10:16.285Z,5.03
2018-11-12T07:11:16.330Z,5.05
2018-11-12T07:12:16.673Z,5.02
2018-11-12T07:13:17.021Z,5.05
2018-11-12T07:14:16.556Z,5.02
2018-11-12T07:15:16.897Z,5.07
2018-11-12T07:16:17.187Z,5.10
2018-11-12T07:17:16.539Z,5.10
2018-11-12T07:18:16.858Z,5.02
2018-11-12T07:19:17.172Z,4.93
2018-11-12T07:20:16.511Z,4.98
2018-11-12T07:21:16.560Z,4.92
2018-11-12T07:22:16.853Z,4.96
2018-11-12T07:23:17.166Z,4.95
2018-11-12T07:24:16.457Z,4.85
2018-11-12T07:25:16.812Z,4.82
2018-11-12T07:26:16.296Z,4.86
2018-11-12T07:27:16.612Z,4.89
2018-11-12T07:28:16.937Z,4.82
2018-11-12T07:29:16.256Z,4.84
2018-11-12T07:30:16.582Z,4.85
2018-11-12T07:31:16.733Z,4.85
2018-11-12T07:32:17.427Z,4.89
2018-11-12T07:33:16.741Z,4.89
2018-11-12T07:34:17.049Z,4.96
2018-11-12T07:35:16.386Z,4.95
2018-11-12T07:36:16.723Z,4.98
2018-11-12T07:37:17.058Z,4.99
2018-11-12T07:38:16.369Z,5.02
2018-11-12T07:39:16.661Z,5.06
2018-11-12T07:40:16.943Z,5.05
2018-11-12T07:41:17.019Z,5.07
2018-11-12T07:42:16.349Z,5.12
2018-11-12T07:43:16.688Z,5.13
2018-11-12T07:44:17.007Z,5.17
2018-11-12T07:45:16.351Z,5.19
2018-11-12T07:46:16.650Z,5.19
2018-11-12T07:47:16.967Z,5.17
2018-11-12T07:48:16.270Z,5.23
2018-11-12T07:49:16.594Z,5.20
2018-11-12T07:50:16.931Z,5.28
2018-11-12T07:51:17.014Z,5.30
2018-11-12T07:52:16.480Z,5.38
2018-11-12T07:53:16.820Z,5.41
2018-11-12T07:54:17.186Z,5.41
2018-11-12T07:55:16.595Z,5.43
2018-11-12T07:56:16.989Z,5.38
2018-11-12T07:57:16.527Z,5.45
2018-11-12T07:58:16.841Z,5.45
2018-11-12T07:59:17.150Z,5.54
2018-11-12T08:00:16.461Z,5.70
2018-11-12T08:01:16.525Z,5.65
2018-11-12T08:02:16.821Z,5.75
2018-11-12T08:03:17.357Z,5.85
2018-11-12T08:04:16.912Z,6.00
2018-11-12T08:05:17.211Z,6.08
2018-11-12T08:06:16.489Z,6.23
2018-11-12T08:07:16.824Z,6.23
2018-11-12T08:08:17.144Z,6.58
2018-11-12T08:09:16.507Z,6.43
2018-11-12T08:10:16.267Z,6.59
2018-11-12T08:11:16.283Z,6.69
2018-11-12T08:12:16.600Z,6.81
2018-11-12T08:13:16.909Z,6.74
2018-11-12T08:14:17.256Z,6.72
2018-11-12T08:15:16.671Z,6.72
2018-11-12T08:16:16.987Z,6.84
2018-11-12T08:17:16.276Z,7.03
2018-11-12T08:18:16.649Z,6.94
2018-11-12T08:19:16.933Z,6.99
2018-11-12T08:20:16.253Z,7.47
2018-11-12T08:21:16.314Z,7.69
2018-11-12T08:22:16.610Z,7.77
2018-11-12T08:23:16.925Z,7.62
2018-11-12T08:24:16.350Z,7.53
2018-11-12T08:25:17.035Z,7.58
2018-11-12T08:26:16.335Z,7.81
2018-11-12T08:27:16.641Z,7.86
2018-11-12T08:28:17.052Z,7.88
2018-11-12T08:29:16.479Z,7.85
2018-11-12T08:30:16.808Z,8.33
2018-11-12T08:31:16.814Z,8.39
2018-11-12T08:32:17.136Z,8.24
2018-11-12T08:33:16.427Z,8.52
2018-11-12T08:34:16.732Z,8.65
2018-11-12T08:35:17.053Z,8.51
2018-11-12T08:36:16.382Z,8.36
2018-11-12T08:37:16.736Z,8.36
2018-11-12T08:38:17.047Z,8.50
2018-11-12T08:39:16.439Z,8.57
2018-11-12T08:40:17.020Z,8.58
2018-11-12T08:41:17.005Z,9.05
2018-11-12T08:42:16.397Z,9.07
2018-11-12T08:43:16.685Z,9.15
2018-11-12T08:44:17.000Z,9.10
2018-11-12T08:45:16.366Z,9.00
2018-11-12T08:46:16.720Z,8.95
2018-11-12T08:47:17.041Z,9.27
2018-11-12T08:48:16.409Z,9.33
2018-11-12T08:49:16.822Z,9.27
2018-11-12T08:50:16.352Z,9.13
2018-11-12T08:51:16.389Z,9.45
2018-11-12T08:52:16.839Z,9.53
2018-11-12T08:53:16.276Z,9.55
2018-11-12T08:54:16.575Z,9.48
2018-11-12T08:55:17.065Z,9.41
2018-11-12T08:56:16.696Z,9.66
2018-11-12T08:57:16.994Z,9.75
2018-11-12T08:58:17.199Z,9.69
2018-11-12T08:59:16.519Z,9.59
2018-11-12T09:00:17.167Z,9.61
2018-11-12T09:01:16.233Z,9.85
2018-11-12T09:02:16.527Z,9.71
2018-11-12T09:03:16.834Z,9.72
2018-11-12T09:04:17.236Z,9.62
2018-11-12T09:05:16.633Z,9.51
2018-11-12T09:06:16.908Z,9.53
2018-11-12T09:07:16.627Z,9.71
2018-11-12T09:08:16.761Z,9.65
2018-11-12T09:09:17.088Z,9.75
2018-11-12T09:10:16.625Z,10.02
2018-11-12T09:11:16.554Z,9.89
2018-11-12T09:12:16.830Z,9.88
2018-11-12T09:13:17.172Z,9.86
2018-11-12T09:14:16.490Z,10.12
2018-11-12T09:15:16.853Z,10.12
2018-11-12T09:16:17.183Z,10.09
2018-11-12T09:17:16.520Z,10.08
2018-11-12T09:18:16.791Z,10.33
2018-11-12T09:19:17.129Z,10.20
2018-11-12T09:20:16.467Z,10.41
2018-11-12T09:21:16.506Z,10.40
2018-11-12T09:22:16.846Z,10.48
2018-11-12T09:23:17.132Z,10.40
2018-11-12T09:24:16.454Z,10.29
2018-11-12T09:25:17.306Z,10.33
2018-11-12T09:26:16.606Z,10.31
2018-11-12T09:27:16.942Z,10.60
2018-11-12T09:28:16.282Z,10.57
2018-11-12T09:29:16.687Z,10.67
2018-11-12T09:30:17.053Z,10.64
2018-11-12T09:31:18.820Z,10.43
2018-11-12T09:32:17.030Z,10.36
2018-11-12T09:33:16.365Z,10.44
2018-11-12T09:34:16.674Z,10.34
2018-11-12T09:35:16.981Z,10.45
2018-11-12T09:36:16.315Z,10.56
2018-11-12T09:37:16.714Z,10.60
2018-11-12T09:38:17.146Z,10.67
2018-11-12T09:39:16.563Z,10.57
2018-11-12T09:40:16.873Z,10.45
2018-11-12T09:41:16.972Z,10.43
2018-11-12T09:42:16.430Z,10.54
2018-11-12T09:43:16.759Z,10.65
2018-11-12T09:44:17.290Z,10.60
2018-11-12T09:45:16.766Z,10.63
2018-11-12T09:46:17.090Z,10.65
2018-11-12T09:47:16.433Z,10.94
2018-11-12T09:48:16.730Z,10.85
2018-11-12T09:49:17.058Z,10.82
2018-11-12T09:50:16.445Z,10.82
2018-11-12T09:51:16.496Z,10.98
2018-11-12T09:52:16.775Z,11.05
2018-11-12T09:53:17.101Z,10.96
2018-11-12T09:54:16.500Z,11.03
2018-11-12T09:55:17.033Z,10.99
2018-11-12T09:56:16.318Z,10.88
2018-11-12T09:57:16.619Z,11.37
2018-11-12T09:58:16.955Z,11.30
2018-11-12T09:59:16.308Z,11.10
2018-11-12T10:00:16.775Z,11.00
2018-11-12T10:01:17.268Z,11.16
2018-11-12T10:02:17.653Z,11.26
2018-11-12T10:03:17.441Z,11.34
2018-11-12T10:04:16.838Z,11.67
2018-11-12T10:05:18.198Z,11.58
2018-11-12T10:06:18.742Z,11.43
2018-11-12T10:07:18.361Z,11.37
2018-11-12T10:08:18.338Z,11.17
2018-11-12T10:09:18.444Z,11.27
2018-11-12T10:10:18.619Z,11.64
2018-11-12T10:11:18.491Z,11.64
2018-11-12T10:12:18.635Z,11.57
2018-11-12T10:13:19.511Z,11.57
2018-11-12T10:14:19.183Z,11.96
2018-11-12T10:15:18.824Z,11.82
2018-11-12T10:16:18.770Z,11.81
2018-11-12T10:17:20.336Z,12.01
2018-11-12T10:18:16.358Z,11.89
2018-11-12T10:19:16.665Z,11.80
2018-11-12T10:20:17.052Z,11.78
2018-11-12T10:21:17.079Z,11.85
2018-11-12T10:22:16.382Z,11.98
2018-11-12T10:23:16.713Z,11.98
2018-11-12T10:24:16.990Z,12.20
2018-11-12T10:25:16.293Z,12.29
2018-11-12T10:26:16.613Z,12.28
2018-11-12T10:27:17.015Z,12.15
2018-11-12T10:28:16.467Z,11.91
2018-11-12T10:29:16.790Z,11.86
2018-11-12T10:30:17.074Z,12.15
2018-11-12T10:31:17.153Z,12.33
2018-11-12T10:32:16.426Z,12.36
2018-11-12T10:33:16.731Z,12.03
2018-11-12T10:34:17.077Z,12.13
2018-11-12T10:35:16.553Z,12.20
2018-11-12T10:36:16.855Z,12.08
2018-11-12T10:37:17.148Z,12.01
2018-11-12T10:38:16.481Z,11.96
2018-11-12T10:39:16.795Z,12.01
2018-11-12T10:40:17.122Z,11.98
2018-11-12T10:41:17.613Z,12.16
2018-11-12T10:42:16.981Z,12.40
2018-11-12T10:43:16.329Z,12.56
2018-11-12T10:44:16.637Z,12.84
2018-11-12T10:45:16.942Z,12.79
2018-11-12T10:46:16.270Z,12.87
2018-11-12T10:47:16.569Z,12.67
2018-11-12T10:48:16.932Z,12.49
2018-11-12T10:49:16.339Z,12.46
2018-11-12T10:50:16.681Z,12.60
2018-11-12T10:51:16.780Z,12.68
2018-11-12T10:52:17.173Z,12.49
2018-11-12T10:53:16.487Z,12.39
2018-11-12T10:54:16.891Z,12.58
2018-11-12T10:55:16.698Z,12.57
2018-11-12T10:56:16.506Z,12.53
2018-11-12T10:57:16.816Z,12.57
2018-11-12T10:58:17.128Z,12.54
2018-11-12T10:59:16.522Z,12.40
2018-11-12T11:00:16.841Z,12.36
2018-11-12T11:01:16.894Z,12.46
2018-11-12T11:02:17.179Z,12.72
2018-11-12T11:03:16.510Z,12.57
2018-11-12T11:04:16.835Z,12.64
2018-11-12T11:05:17.163Z,12.84
2018-11-12T11:06:16.476Z,12.98
2018-11-12T11:07:16.765Z,13.34
2018-11-12T11:08:17.234Z,13.55
2018-11-12T11:09:16.841Z,13.39
2018-11-12T11:10:17.220Z,13.26
2018-11-12T11:11:16.244Z,13.26
2018-11-12T11:12:16.544Z,13.50
2018-11-12T11:13:16.860Z,13.29
2018-11-12T11:14:17.186Z,13.43
2018-11-12T11:15:16.549Z,13.40
2018-11-12T11:16:16.943Z,13.18
2018-11-12T11:17:16.248Z,13.05
2018-11-12T11:18:16.571Z,13.27
2018-11-12T11:19:16.879Z,13.44
2018-11-12T11:20:17.203Z,13.40
2018-11-12T11:21:16.284Z,13.65
2018-11-12T11:22:16.719Z,13.61
2018-11-12T11:23:17.045Z,13.25
2018-11-12T11:24:16.334Z,13.16
2018-11-12T11:25:16.682Z,13.16
2018-11-12T11:26:16.967Z,13.47
2018-11-12T11:27:16.262Z,13.34
2018-11-12T11:28:16.575Z,13.27
2018-11-12T11:29:17.224Z,13.32
2018-11-12T11:30:16.553Z,13.55
2018-11-12T11:31:16.586Z,13.84
2018-11-12T11:32:16.861Z,13.76
2018-11-12T11:33:17.166Z,13.97
2018-11-12T11:34:16.445Z,14.01
2018-11-12T11:35:16.789Z,14.13
2018-11-12T11:36:17.084Z,14.22
2018-11-12T11:37:16.394Z,14.33
2018-11-12T11:38:16.699Z,14.30
2018-11-12T11:39:16.988Z,14.16
2018-11-12T11:40:16.463Z,14.44
2018-11-12T11:41:16.341Z,14.44
2018-11-12T11:42:16.653Z,14.49
2018-11-12T11:43:17.000Z,14.55
2018-11-12T11:44:16.298Z,14.32
2018-11-12T11:45:16.628Z,14.26
2018-11-12T11:46:16.974Z,14.43
2018-11-12T11:47:16.441Z,14.68
2018-11-12T11:48:17.037Z,14.68
2018-11-12T11:49:16.616Z,14.35
2018-11-12T11:50:17.040Z,14.47
2018-11-12T11:51:16.998Z,14.74
2018-11-12T11:52:16.305Z,14.64
2018-11-12T11:53:16.611Z,14.57
2018-11-12T11:54:16.928Z,14.50
2018-11-12T11:55:16.256Z,14.50
2018-11-12T11:56:16.633Z,14.62
2018-11-12T11:57:17.125Z,14.62
2018-11-12T11:58:16.549Z,14.70
2018-11-12T11:59:16.853Z,14.63
2018-11-12T12:00:17.166Z,14.64
2018-11-12T12:01:17.205Z,14.44
2018-11-12T12:02:16.533Z,14.47
2018-11-12T12:03:16.952Z,14.46
2018-11-12T12:04:16.291Z,14.39
2018-11-12T12:05:16.602Z,14.18
2018-11-12T12:06:16.939Z,14.22
2018-11-12T12:07:16.263Z,14.28
2018-11-12T12:08:16.598Z,14.12
2018-11-12T12:09:16.940Z,14.05
2018-11-12T12:10:16.415Z,13.88
2018-11-12T12:11:16.491Z,13.85
2018-11-12T12:12:16.820Z,13.85
2018-11-12T12:13:17.122Z,13.88
2018-11-12T12:14:16.510Z,13.91
2018-11-12T12:15:16.805Z,13.84
2018-11-12T12:16:17.130Z,13.98
2018-11-12T12:17:16.460Z,14.11
2018-11-12T12:18:16.790Z,14.05
2018-11-12T12:19:17.162Z,13.98
2018-11-12T12:20:16.693Z,14.18
2018-11-12T12:21:16.751Z,14.08
2018-11-12T12:22:17.053Z,14.11
2018-11-12T12:23:16.373Z,14.07
2018-11-12T12:24:16.750Z,13.98
2018-11-12T12:25:17.368Z,14.02
2018-11-12T12:26:16.297Z,14.33
2018-11-12T12:27:16.577Z,14.26
2018-11-12T12:28:16.866Z,14.05
2018-11-12T12:29:17.201Z,14.12
2018-11-12T12:30:16.568Z,14.02
2018-11-12T12:31:16.574Z,14.07
2018-11-12T12:32:16.879Z,14.00
2018-11-12T12:33:17.192Z,13.92
2018-11-12T12:34:16.496Z,14.04
2018-11-12T12:35:16.835Z,14.40
2018-11-12T12:36:17.359Z,14.43
2018-11-12T12:37:16.947Z,14.56
2018-11-12T12:38:16.235Z,14.36
2018-11-12T12:39:16.577Z,14.43
2018-11-12T12:40:16.913Z,14.39
2018-11-12T12:41:16.928Z,14.26
2018-11-12T12:42:16.290Z,14.41
2018-11-12T12:43:16.602Z,14.46
2018-11-12T12:44:16.929Z,14.44
2018-11-12T12:45:16.560Z,14.44
2018-11-12T12:46:16.989Z,14.53
2018-11-12T12:47:16.287Z,14.44
2018-11-12T12:48:16.598Z,14.49
2018-11-12T12:49:16.909Z,14.41
2018-11-12T12:50:17.287Z,14.46
2018-11-12T12:51:16.340Z,14.41
2018-11-12T12:52:16.745Z,14.47
2018-11-12T12:53:17.047Z,14.44
2018-11-12T12:54:16.376Z,14.41
2018-11-12T12:55:16.709Z,14.39
2018-11-12T12:56:17.133Z,14.35
2018-11-12T12:57:16.512Z,14.36
2018-11-12T12:58:16.884Z,14.41
2018-11-12T12:59:16.282Z,14.49
2018-11-12T13:00:16.585Z,14.50
2018-11-12T13:01:16.654Z,14.49
2018-11-12T13:02:17.066Z,14.71
2018-11-12T13:03:16.510Z,14.67
2018-11-12T13:04:16.814Z,14.67
2018-11-12T13:05:17.170Z,14.70
2018-11-12T13:06:16.454Z,14.62
2018-11-12T13:07:16.790Z,14.70
2018-11-12T13:08:17.225Z,14.80
2018-11-12T13:09:16.538Z,14.83
2018-11-12T13:10:16.826Z,14.81